sensor_id;sensor_type;location;lat;lon;timestamp;P1;durP1;ratioP1;P2;durP2;ratioP2
9178;SDS011;4624;48.126;11.546;2023-03-15T00:00:04;1.80;;;0.50;;
9178;SDS011;4624;48.126;11.546;2023-03-15T00:02:34;1.40;;;0.40;;
9178;SDS011;4624;48.126;11.546;2023-03-15T00:05:01;0.37;;;0.30;;
9178;SDS011;4624;48.126;11.546;2023-03-15T00:07:28;0.33;;;0.30;;
9178;SDS011;4624;48.126;11.546;2023-03-15T00:09:55;1.90;;;0.40;;
9178;SDS011;4624;48.126;11.546;2023-03-15T00:12:22;1.63;;;0.30;;
9178;SDS011;4624;48.126;11.546;2023-03-15T00:14:49;0.80;;;0.50;;
9178;SDS011;4624;48.126;11.546;2023-03-15T00:17:17;0.90;;;0.30;;
9178;SDS011;4624;48.126;11.546;2023-03-15T00:19:46;0.27;;;0.27;;
9178;SDS011;4624;48.126;11.546;2023-03-15T00:22:13;0.70;;;0.30;;
9178;SDS011;4624;48.126;11.546;2023-03-15T00:24:40;0.67;;;0.40;;
9178;SDS011;4624;48.126;11.546;2023-03-15T00:27:07;0.97;;;0.47;;
9178;SDS011;4624;48.126;11.546;2023-03-15T00:29:33;0.50;;;0.30;;
9178;SDS011;4624;48.126;11.546;2023-03-15T00:32:00;0.60;;;0.33;;
9178;SDS011;4624;48.126;11.546;2023-03-15T00:34:28;0.93;;;0.40;;
9178;SDS011;4624;48.126;11.546;2023-03-15T00:36:57;2.50;;;0.40;;
9178;SDS011;4624;48.126;11.546;2023-03-15T00:39:24;1.03;;;0.50;;
9178;SDS011;4624;48.126;11.546;2023-03-15T00:41:51;1.00;;;0.73;;
9178;SDS011;4624;48.126;11.546;2023-03-15T00:44:21;0.53;;;0.30;;
9178;SDS011;4624;48.126;11.546;2023-03-15T00:46:48;0.90;;;0.40;;
9178;SDS011;4624;48.126;11.546;2023-03-15T00:49:15;1.30;;;0.40;;
9178;SDS011;4624;48.126;11.546;2023-03-15T00:51:43;2.33;;;0.40;;
9178;SDS011;4624;48.126;11.546;2023-03-15T00:54:09;1.27;;;0.40;;
9178;SDS011;4624;48.126;11.546;2023-03-15T00:56:37;1.27;;;0.50;;
9178;SDS011;4624;48.126;11.546;2023-03-15T00:59:05;1.57;;;0.40;;
9178;SDS011;4624;48.126;11.546;2023-03-15T01:01:31;1.43;;;0.40;;
9178;SDS011;4624;48.126;11.546;2023-03-15T01:03:58;1.17;;;0.20;;
9178;SDS011;4624;48.126;11.546;2023-03-15T01:06:26;0.30;;;0.30;;
9178;SDS011;4624;48.126;11.546;2023-03-15T01:08:55;0.30;;;0.20;;
9178;SDS011;4624;48.126;11.546;2023-03-15T01:11:22;0.10;;;0.10;;
9178;SDS011;4624;48.126;11.546;2023-03-15T01:13:50;0.10;;;0.10;;
9178;SDS011;4624;48.126;11.546;2023-03-15T01:16:17;0.13;;;0.13;;
9178;SDS011;4624;48.126;11.546;2023-03-15T01:18:44;0.50;;;0.20;;
9178;SDS011;4624;48.126;11.546;2023-03-15T01:21:11;0.30;;;0.13;;
9178;SDS011;4624;48.126;11.546;2023-03-15T01:23:39;0.17;;;0.10;;
9178;SDS011;4624;48.126;11.546;2023-03-15T01:26:09;0.10;;;0.10;;
9178;SDS011;4624;48.126;11.546;2023-03-15T01:28:37;0.60;;;0.20;;
9178;SDS011;4624;48.126;11.546;2023-03-15T01:31:04;0.00;;;0.00;;
9178;SDS011;4624;48.126;11.546;2023-03-15T01:33:31;0.10;;;0.10;;
9178;SDS011;4624;48.126;11.546;2023-03-15T01:35:58;0.20;;;0.20;;
9178;SDS011;4624;48.126;11.546;2023-03-15T01:38:27;0.10;;;0.10;;
9178;SDS011;4624;48.126;11.546;2023-03-15T01:40:54;0.10;;;0.07;;
9178;SDS011;4624;48.126;11.546;2023-03-15T01:43:22;0.20;;;0.10;;
9178;SDS011;4624;48.126;11.546;2023-03-15T01:45:56;0.17;;;0.13;;
9178;SDS011;4624;48.126;11.546;2023-03-15T01:48:32;0.10;;;0.10;;
9178;SDS011;4624;48.126;11.546;2023-03-15T01:51:03;1.00;;;0.20;;
9178;SDS011;4624;48.126;11.546;2023-03-15T01:53:35;0.10;;;0.10;;
9178;SDS011;4624;48.126;11.546;2023-03-15T01:56:04;0.83;;;0.27;;
9178;SDS011;4624;48.126;11.546;2023-03-15T01:58:33;0.10;;;0.10;;
9178;SDS011;4624;48.126;11.546;2023-03-15T02:01:01;0.93;;;0.17;;
9178;SDS011;4624;48.126;11.546;2023-03-15T02:03:29;0.10;;;0.10;;
9178;SDS011;4624;48.126;11.546;2023-03-15T02:05:59;0.10;;;0.10;;
9178;SDS011;4624;48.126;11.546;2023-03-15T02:08:31;0.10;;;0.10;;
9178;SDS011;4624;48.126;11.546;2023-03-15T02:11:02;0.10;;;0.10;;
9178;SDS011;4624;48.126;11.546;2023-03-15T02:13:31;0.23;;;0.10;;
9178;SDS011;4624;48.126;11.546;2023-03-15T02:16:00;0.60;;;0.50;;
9178;SDS011;4624;48.126;11.546;2023-03-15T02:18:30;0.30;;;0.30;;
9178;SDS011;4624;48.126;11.546;2023-03-15T02:21:00;0.70;;;0.20;;
9178;SDS011;4624;48.126;11.546;2023-03-15T02:23:37;0.30;;;0.30;;
9178;SDS011;4624;48.126;11.546;2023-03-15T02:26:07;0.30;;;0.23;;
9178;SDS011;4624;48.126;11.546;2023-03-15T02:28:43;0.30;;;0.30;;
9178;SDS011;4624;48.126;11.546;2023-03-15T02:31:10;0.20;;;0.20;;
9178;SDS011;4624;48.126;11.546;2023-03-15T02:33:39;0.23;;;0.20;;
9178;SDS011;4624;48.126;11.546;2023-03-15T02:36:09;0.20;;;0.20;;
9178;SDS011;4624;48.126;11.546;2023-03-15T02:38:40;0.20;;;0.20;;
9178;SDS011;4624;48.126;11.546;2023-03-15T02:41:07;0.40;;;0.37;;
9178;SDS011;4624;48.126;11.546;2023-03-15T02:43:34;0.30;;;0.30;;
9178;SDS011;4624;48.126;11.546;2023-03-15T02:46:03;0.20;;;0.20;;
9178;SDS011;4624;48.126;11.546;2023-03-15T02:48:30;0.60;;;0.60;;
9178;SDS011;4624;48.126;11.546;2023-03-15T02:50:59;0.30;;;0.30;;
9178;SDS011;4624;48.126;11.546;2023-03-15T02:53:27;0.30;;;0.30;;
9178;SDS011;4624;48.126;11.546;2023-03-15T02:55:54;0.30;;;0.30;;
9178;SDS011;4624;48.126;11.546;2023-03-15T02:58:22;0.50;;;0.40;;
9178;SDS011;4624;48.126;11.546;2023-03-15T03:00:48;0.33;;;0.33;;
9178;SDS011;4624;48.126;11.546;2023-03-15T03:03:18;0.27;;;0.27;;
9178;SDS011;4624;48.126;11.546;2023-03-15T03:05:45;1.10;;;0.33;;
9178;SDS011;4624;48.126;11.546;2023-03-15T03:08:12;0.30;;;0.30;;
9178;SDS011;4624;48.126;11.546;2023-03-15T03:10:40;1.00;;;0.30;;
9178;SDS011;4624;48.126;11.546;2023-03-15T03:13:07;0.90;;;0.53;;
9178;SDS011;4624;48.126;11.546;2023-03-15T03:15:34;0.40;;;0.40;;
9178;SDS011;4624;48.126;11.546;2023-03-15T03:18:00;1.20;;;0.60;;
9178;SDS011;4624;48.126;11.546;2023-03-15T03:20:28;1.70;;;0.70;;
9178;SDS011;4624;48.126;11.546;2023-03-15T03:22:55;0.90;;;0.70;;
9178;SDS011;4624;48.126;11.546;2023-03-15T03:25:22;0.40;;;0.40;;
9178;SDS011;4624;48.126;11.546;2023-03-15T03:27:51;1.50;;;0.50;;
9178;SDS011;4624;48.126;11.546;2023-03-15T03:30:21;0.40;;;0.40;;
9178;SDS011;4624;48.126;11.546;2023-03-15T03:32:48;0.83;;;0.30;;
9178;SDS011;4624;48.126;11.546;2023-03-15T03:35:15;0.50;;;0.40;;
9178;SDS011;4624;48.126;11.546;2023-03-15T03:37:43;1.00;;;0.53;;
9178;SDS011;4624;48.126;11.546;2023-03-15T03:40:10;0.60;;;0.40;;
9178;SDS011;4624;48.126;11.546;2023-03-15T03:42:38;0.50;;;0.30;;
9178;SDS011;4624;48.126;11.546;2023-03-15T03:45:05;0.93;;;0.60;;
9178;SDS011;4624;48.126;11.546;2023-03-15T03:47:32;1.83;;;0.50;;
9178;SDS011;4624;48.126;11.546;2023-03-15T03:49:59;2.73;;;0.80;;
9178;SDS011;4624;48.126;11.546;2023-03-15T03:52:26;1.03;;;0.50;;
9178;SDS011;4624;48.126;11.546;2023-03-15T03:54:54;1.03;;;0.70;;
9178;SDS011;4624;48.126;11.546;2023-03-15T03:57:21;1.67;;;0.70;;
9178;SDS011;4624;48.126;11.546;2023-03-15T03:59:47;1.07;;;0.60;;
9178;SDS011;4624;48.126;11.546;2023-03-15T04:02:14;0.63;;;0.50;;
9178;SDS011;4624;48.126;11.546;2023-03-15T04:04:41;1.13;;;0.47;;
9178;SDS011;4624;48.126;11.546;2023-03-15T04:07:08;0.90;;;0.50;;
9178;SDS011;4624;48.126;11.546;2023-03-15T04:09:35;2.10;;;0.57;;
9178;SDS011;4624;48.126;11.546;2023-03-15T04:12:03;1.30;;;0.60;;
9178;SDS011;4624;48.126;11.546;2023-03-15T04:14:31;2.13;;;0.80;;
9178;SDS011;4624;48.126;11.546;2023-03-15T04:16:58;0.73;;;0.63;;
9178;SDS011;4624;48.126;11.546;2023-03-15T04:19:27;1.07;;;0.40;;
9178;SDS011;4624;48.126;11.546;2023-03-15T04:21:54;1.17;;;0.53;;
9178;SDS011;4624;48.126;11.546;2023-03-15T04:24:21;0.70;;;0.70;;
9178;SDS011;4624;48.126;11.546;2023-03-15T04:26:48;0.60;;;0.60;;
9178;SDS011;4624;48.126;11.546;2023-03-15T04:29:16;2.00;;;0.67;;
9178;SDS011;4624;48.126;11.546;2023-03-15T04:31:43;0.60;;;0.60;;
9178;SDS011;4624;48.126;11.546;2023-03-15T04:34:09;0.60;;;0.60;;
9178;SDS011;4624;48.126;11.546;2023-03-15T04:36:37;0.70;;;0.60;;
9178;SDS011;4624;48.126;11.546;2023-03-15T04:39:04;1.60;;;0.60;;
9178;SDS011;4624;48.126;11.546;2023-03-15T04:41:31;0.60;;;0.60;;
9178;SDS011;4624;48.126;11.546;2023-03-15T04:44:00;1.27;;;0.60;;
9178;SDS011;4624;48.126;11.546;2023-03-15T04:46:29;0.97;;;0.60;;
9178;SDS011;4624;48.126;11.546;2023-03-15T04:48:56;0.70;;;0.70;;
9178;SDS011;4624;48.126;11.546;2023-03-15T04:51:23;0.53;;;0.53;;
9178;SDS011;4624;48.126;11.546;2023-03-15T04:53:50;0.60;;;0.60;;
9178;SDS011;4624;48.126;11.546;2023-03-15T04:56:16;1.20;;;0.70;;
9178;SDS011;4624;48.126;11.546;2023-03-15T04:58:43;1.07;;;0.90;;
9178;SDS011;4624;48.126;11.546;2023-03-15T05:01:10;1.53;;;1.10;;
9178;SDS011;4624;48.126;11.546;2023-03-15T05:03:38;1.80;;;0.80;;
9178;SDS011;4624;48.126;11.546;2023-03-15T05:06:05;2.77;;;0.83;;
9178;SDS011;4624;48.126;11.546;2023-03-15T05:08:33;1.93;;;0.73;;
9178;SDS011;4624;48.126;11.546;2023-03-15T05:11:00;2.17;;;0.73;;
9178;SDS011;4624;48.126;11.546;2023-03-15T05:13:27;1.20;;;0.70;;
9178;SDS011;4624;48.126;11.546;2023-03-15T05:15:54;2.67;;;0.83;;
9178;SDS011;4624;48.126;11.546;2023-03-15T05:18:21;0.60;;;0.60;;
9178;SDS011;4624;48.126;11.546;2023-03-15T05:20:49;2.53;;;1.03;;
9178;SDS011;4624;48.126;11.546;2023-03-15T05:23:16;1.37;;;0.63;;
9178;SDS011;4624;48.126;11.546;2023-03-15T05:25:47;0.80;;;0.50;;
9178;SDS011;4624;48.126;11.546;2023-03-15T05:28:18;2.50;;;1.00;;
9178;SDS011;4624;48.126;11.546;2023-03-15T05:30:45;0.87;;;0.77;;
9178;SDS011;4624;48.126;11.546;2023-03-15T05:33:12;1.50;;;0.70;;
9178;SDS011;4624;48.126;11.546;2023-03-15T05:35:38;1.17;;;0.70;;
9178;SDS011;4624;48.126;11.546;2023-03-15T05:38:07;2.97;;;1.30;;
9178;SDS011;4624;48.126;11.546;2023-03-15T05:40:33;2.93;;;0.93;;
9178;SDS011;4624;48.126;11.546;2023-03-15T05:43:00;1.23;;;0.73;;
9178;SDS011;4624;48.126;11.546;2023-03-15T05:45:27;2.30;;;1.03;;
9178;SDS011;4624;48.126;11.546;2023-03-15T05:47:53;2.77;;;0.83;;
9178;SDS011;4624;48.126;11.546;2023-03-15T05:50:20;1.63;;;0.70;;
9178;SDS011;4624;48.126;11.546;2023-03-15T05:52:49;3.40;;;0.93;;
9178;SDS011;4624;48.126;11.546;2023-03-15T05:55:17;1.93;;;1.10;;
9178;SDS011;4624;48.126;11.546;2023-03-15T05:57:44;1.47;;;0.90;;
9178;SDS011;4624;48.126;11.546;2023-03-15T06:00:11;3.00;;;1.03;;
9178;SDS011;4624;48.126;11.546;2023-03-15T06:02:40;2.03;;;1.13;;
9178;SDS011;4624;48.126;11.546;2023-03-15T06:05:07;2.30;;;1.10;;
9178;SDS011;4624;48.126;11.546;2023-03-15T06:07:34;3.03;;;1.10;;
9178;SDS011;4624;48.126;11.546;2023-03-15T06:10:01;2.07;;;1.40;;
9178;SDS011;4624;48.126;11.546;2023-03-15T06:12:30;1.90;;;1.33;;
9178;SDS011;4624;48.126;11.546;2023-03-15T06:14:57;2.97;;;1.20;;
9178;SDS011;4624;48.126;11.546;2023-03-15T06:17:23;2.10;;;1.10;;
9178;SDS011;4624;48.126;11.546;2023-03-15T06:19:50;3.60;;;1.00;;
9178;SDS011;4624;48.126;11.546;2023-03-15T06:22:17;2.27;;;1.10;;
9178;SDS011;4624;48.126;11.546;2023-03-15T06:24:44;5.03;;;1.37;;
9178;SDS011;4624;48.126;11.546;2023-03-15T06:27:11;1.20;;;1.10;;
9178;SDS011;4624;48.126;11.546;2023-03-15T06:29:39;2.87;;;1.20;;
9178;SDS011;4624;48.126;11.546;2023-03-15T06:32:06;3.50;;;1.40;;
9178;SDS011;4624;48.126;11.546;2023-03-15T06:34:33;5.13;;;3.47;;
9178;SDS011;4624;48.126;11.546;2023-03-15T06:37:00;4.40;;;1.37;;
9178;SDS011;4624;48.126;11.546;2023-03-15T06:39:27;2.30;;;1.30;;
9178;SDS011;4624;48.126;11.546;2023-03-15T06:41:54;2.47;;;1.30;;
9178;SDS011;4624;48.126;11.546;2023-03-15T06:44:22;4.53;;;1.77;;
9178;SDS011;4624;48.126;11.546;2023-03-15T06:46:50;4.43;;;1.50;;
9178;SDS011;4624;48.126;11.546;2023-03-15T06:49:17;1.60;;;1.50;;
9178;SDS011;4624;48.126;11.546;2023-03-15T06:51:44;2.53;;;1.50;;
9178;SDS011;4624;48.126;11.546;2023-03-15T06:54:10;4.07;;;1.57;;
9178;SDS011;4624;48.126;11.546;2023-03-15T06:56:37;2.70;;;1.73;;
9178;SDS011;4624;48.126;11.546;2023-03-15T06:59:04;1.97;;;1.80;;
9178;SDS011;4624;48.126;11.546;2023-03-15T07:01:31;2.57;;;2.17;;
9178;SDS011;4624;48.126;11.546;2023-03-15T07:03:59;2.50;;;1.67;;
9178;SDS011;4624;48.126;11.546;2023-03-15T07:06:26;3.43;;;2.00;;
9178;SDS011;4624;48.126;11.546;2023-03-15T07:08:53;3.17;;;1.57;;
9178;SDS011;4624;48.126;11.546;2023-03-15T07:11:20;4.60;;;2.17;;
9178;SDS011;4624;48.126;11.546;2023-03-15T07:13:47;2.47;;;1.67;;
9178;SDS011;4624;48.126;11.546;2023-03-15T07:16:13;1.60;;;1.50;;
9178;SDS011;4624;48.126;11.546;2023-03-15T07:18:40;2.43;;;1.60;;
9178;SDS011;4624;48.126;11.546;2023-03-15T07:21:08;2.63;;;1.80;;
9178;SDS011;4624;48.126;11.546;2023-03-15T07:23:35;2.13;;;1.40;;
9178;SDS011;4624;48.126;11.546;2023-03-15T07:26:02;3.27;;;1.93;;
9178;SDS011;4624;48.126;11.546;2023-03-15T07:28:29;2.70;;;2.23;;
9178;SDS011;4624;48.126;11.546;2023-03-15T07:30:56;2.10;;;1.67;;
9178;SDS011;4624;48.126;11.546;2023-03-15T07:33:25;3.53;;;2.03;;
9178;SDS011;4624;48.126;11.546;2023-03-15T07:35:53;3.77;;;2.13;;
9178;SDS011;4624;48.126;11.546;2023-03-15T07:38:22;2.93;;;2.20;;
9178;SDS011;4624;48.126;11.546;2023-03-15T07:40:50;4.13;;;2.10;;
9178;SDS011;4624;48.126;11.546;2023-03-15T07:43:17;2.53;;;2.33;;
9178;SDS011;4624;48.126;11.546;2023-03-15T07:45:44;3.77;;;2.70;;
9178;SDS011;4624;48.126;11.546;2023-03-15T07:48:11;4.00;;;2.10;;
9178;SDS011;4624;48.126;11.546;2023-03-15T07:50:38;3.13;;;2.20;;
9178;SDS011;4624;48.126;11.546;2023-03-15T07:53:05;2.90;;;2.20;;
9178;SDS011;4624;48.126;11.546;2023-03-15T07:55:33;2.90;;;2.00;;
9178;SDS011;4624;48.126;11.546;2023-03-15T07:58:01;4.43;;;2.60;;
9178;SDS011;4624;48.126;11.546;2023-03-15T08:00:28;3.20;;;2.10;;
9178;SDS011;4624;48.126;11.546;2023-03-15T08:02:55;5.70;;;2.57;;
9178;SDS011;4624;48.126;11.546;2023-03-15T08:05:22;3.40;;;2.40;;
9178;SDS011;4624;48.126;11.546;2023-03-15T08:07:48;4.10;;;2.30;;
9178;SDS011;4624;48.126;11.546;2023-03-15T08:10:16;3.87;;;2.70;;
9178;SDS011;4624;48.126;11.546;2023-03-15T08:12:45;2.40;;;2.20;;
9178;SDS011;4624;48.126;11.546;2023-03-15T08:15:12;2.57;;;2.33;;
9178;SDS011;4624;48.126;11.546;2023-03-15T08:17:40;2.70;;;2.20;;
9178;SDS011;4624;48.126;11.546;2023-03-15T08:20:07;4.70;;;2.57;;
9178;SDS011;4624;48.126;11.546;2023-03-15T08:22:35;4.23;;;2.03;;
9178;SDS011;4624;48.126;11.546;2023-03-15T08:25:02;3.67;;;2.63;;
9178;SDS011;4624;48.126;11.546;2023-03-15T08:27:29;4.20;;;2.70;;
9178;SDS011;4624;48.126;11.546;2023-03-15T08:29:58;4.67;;;2.60;;
9178;SDS011;4624;48.126;11.546;2023-03-15T08:32:24;4.40;;;2.47;;
9178;SDS011;4624;48.126;11.546;2023-03-15T08:34:51;3.77;;;2.47;;
9178;SDS011;4624;48.126;11.546;2023-03-15T08:37:18;5.23;;;2.60;;
9178;SDS011;4624;48.126;11.546;2023-03-15T08:39:45;7.50;;;2.70;;
9178;SDS011;4624;48.126;11.546;2023-03-15T08:42:11;4.40;;;2.93;;
9178;SDS011;4624;48.126;11.546;2023-03-15T08:44:38;5.00;;;3.00;;
9178;SDS011;4624;48.126;11.546;2023-03-15T08:47:06;4.50;;;2.53;;
9178;SDS011;4624;48.126;11.546;2023-03-15T08:49:33;5.33;;;2.40;;
9178;SDS011;4624;48.126;11.546;2023-03-15T08:52:00;6.93;;;2.50;;
9178;SDS011;4624;48.126;11.546;2023-03-15T08:54:27;4.87;;;2.43;;
9178;SDS011;4624;48.126;11.546;2023-03-15T08:56:54;3.13;;;2.40;;
9178;SDS011;4624;48.126;11.546;2023-03-15T08:59:20;4.43;;;2.40;;
9178;SDS011;4624;48.126;11.546;2023-03-15T09:01:47;4.13;;;2.30;;
9178;SDS011;4624;48.126;11.546;2023-03-15T09:04:15;5.40;;;1.80;;
9178;SDS011;4624;48.126;11.546;2023-03-15T09:06:42;2.97;;;1.87;;
9178;SDS011;4624;48.126;11.546;2023-03-15T09:09:09;3.17;;;1.70;;
9178;SDS011;4624;48.126;11.546;2023-03-15T09:11:35;3.47;;;1.93;;
9178;SDS011;4624;48.126;11.546;2023-03-15T09:14:02;2.90;;;1.80;;
9178;SDS011;4624;48.126;11.546;2023-03-15T09:16:29;2.67;;;1.70;;
9178;SDS011;4624;48.126;11.546;2023-03-15T09:18:56;3.07;;;1.90;;
9178;SDS011;4624;48.126;11.546;2023-03-15T09:21:24;3.53;;;1.57;;
9178;SDS011;4624;48.126;11.546;2023-03-15T09:23:51;2.60;;;1.97;;
9178;SDS011;4624;48.126;11.546;2023-03-15T09:26:18;2.93;;;1.53;;
9178;SDS011;4624;48.126;11.546;2023-03-15T09:28:45;1.70;;;1.40;;
9178;SDS011;4624;48.126;11.546;2023-03-15T09:31:11;6.30;;;1.90;;
9178;SDS011;4624;48.126;11.546;2023-03-15T09:33:38;3.73;;;1.60;;
9178;SDS011;4624;48.126;11.546;2023-03-15T09:36:05;4.67;;;1.57;;
9178;SDS011;4624;48.126;11.546;2023-03-15T09:38:34;2.20;;;1.87;;
9178;SDS011;4624;48.126;11.546;2023-03-15T09:41:00;2.87;;;1.43;;
9178;SDS011;4624;48.126;11.546;2023-03-15T09:43:34;3.27;;;1.47;;
9178;SDS011;4624;48.126;11.546;2023-03-15T09:46:15;3.30;;;1.60;;
9178;SDS011;4624;48.126;11.546;2023-03-15T09:48:51;3.83;;;1.30;;
9178;SDS011;4624;48.126;11.546;2023-03-15T09:51:25;3.90;;;2.00;;
9178;SDS011;4624;48.126;11.546;2023-03-15T09:54:01;3.53;;;1.93;;
9178;SDS011;4624;48.126;11.546;2023-03-15T09:56:31;3.07;;;1.60;;
9178;SDS011;4624;48.126;11.546;2023-03-15T09:59:01;3.83;;;2.00;;
9178;SDS011;4624;48.126;11.546;2023-03-15T10:01:29;1.73;;;1.57;;
9178;SDS011;4624;48.126;11.546;2023-03-15T10:03:57;4.67;;;1.40;;
9178;SDS011;4624;48.126;11.546;2023-03-15T10:06:32;7.10;;;2.00;;
9178;SDS011;4624;48.126;11.546;2023-03-15T10:09:02;3.90;;;1.57;;
9178;SDS011;4624;48.126;11.546;2023-03-15T10:11:36;3.50;;;1.70;;
9178;SDS011;4624;48.126;11.546;2023-03-15T10:14:13;2.57;;;1.57;;
9178;SDS011;4624;48.126;11.546;2023-03-15T10:16:51;2.33;;;1.47;;
9178;SDS011;4624;48.126;11.546;2023-03-15T10:19:21;3.40;;;1.30;;
9178;SDS011;4624;48.126;11.546;2023-03-15T10:21:54;3.50;;;1.37;;
9178;SDS011;4624;48.126;11.546;2023-03-15T10:24:30;5.10;;;1.47;;
9178;SDS011;4624;48.126;11.546;2023-03-15T10:27:04;3.67;;;1.80;;
9178;SDS011;4624;48.126;11.546;2023-03-15T10:29:40;2.80;;;1.40;;
9178;SDS011;4624;48.126;11.546;2023-03-15T10:32:08;2.40;;;1.40;;
9178;SDS011;4624;48.126;11.546;2023-03-15T10:34:41;2.70;;;1.20;;
9178;SDS011;4624;48.126;11.546;2023-03-15T10:37:10;2.33;;;1.27;;
9178;SDS011;4624;48.126;11.546;2023-03-15T10:39:38;3.70;;;1.70;;
9178;SDS011;4624;48.126;11.546;2023-03-15T10:42:21;2.53;;;1.10;;
9178;SDS011;4624;48.126;11.546;2023-03-15T10:44:52;4.23;;;1.27;;
9178;SDS011;4624;48.126;11.546;2023-03-15T10:47:19;4.13;;;1.40;;
9178;SDS011;4624;48.126;11.546;2023-03-15T10:49:47;1.93;;;0.97;;
9178;SDS011;4624;48.126;11.546;2023-03-15T10:52:27;1.10;;;0.93;;
9178;SDS011;4624;48.126;11.546;2023-03-15T10:55:00;2.30;;;1.00;;
9178;SDS011;4624;48.126;11.546;2023-03-15T10:57:32;2.93;;;0.83;;
9178;SDS011;4624;48.126;11.546;2023-03-15T11:00:04;4.47;;;1.03;;
9178;SDS011;4624;48.126;11.546;2023-03-15T11:02:48;3.03;;;0.93;;
9178;SDS011;4624;48.126;11.546;2023-03-15T11:05:16;2.03;;;1.10;;
9178;SDS011;4624;48.126;11.546;2023-03-15T11:07:54;3.90;;;1.00;;
9178;SDS011;4624;48.126;11.546;2023-03-15T11:10:24;1.60;;;0.63;;
9178;SDS011;4624;48.126;11.546;2023-03-15T11:13:08;3.20;;;0.80;;
9178;SDS011;4624;48.126;11.546;2023-03-15T11:15:39;1.03;;;0.50;;
9178;SDS011;4624;48.126;11.546;2023-03-15T11:18:17;1.17;;;0.67;;
9178;SDS011;4624;48.126;11.546;2023-03-15T11:20:45;0.70;;;0.60;;
9178;SDS011;4624;48.126;11.546;2023-03-15T11:23:13;1.67;;;0.80;;
9178;SDS011;4624;48.126;11.546;2023-03-15T11:25:43;0.93;;;0.70;;
9178;SDS011;4624;48.126;11.546;2023-03-15T11:28:15;0.90;;;0.50;;
9178;SDS011;4624;48.126;11.546;2023-03-15T11:30:44;2.70;;;0.70;;
9178;SDS011;4624;48.126;11.546;2023-03-15T11:33:17;2.20;;;0.60;;
9178;SDS011;4624;48.126;11.546;2023-03-15T11:35:52;1.53;;;0.63;;
9178;SDS011;4624;48.126;11.546;2023-03-15T11:38:26;1.20;;;0.77;;
9178;SDS011;4624;48.126;11.546;2023-03-15T11:40:59;2.90;;;0.70;;
9178;SDS011;4624;48.126;11.546;2023-03-15T11:43:33;2.10;;;0.80;;
9178;SDS011;4624;48.126;11.546;2023-03-15T11:46:13;0.70;;;0.47;;
9178;SDS011;4624;48.126;11.546;2023-03-15T11:48:50;3.10;;;0.80;;
9178;SDS011;4624;48.126;11.546;2023-03-15T11:51:20;1.40;;;0.63;;
9178;SDS011;4624;48.126;11.546;2023-03-15T11:53:49;1.03;;;0.70;;
9178;SDS011;4624;48.126;11.546;2023-03-15T11:56:24;1.58;;;0.50;;
9178;SDS011;4624;48.126;11.546;2023-03-15T11:59:00;1.50;;;0.60;;
9178;SDS011;4624;48.126;11.546;2023-03-15T12:01:32;2.78;;;0.50;;
9178;SDS011;4624;48.126;11.546;2023-03-15T12:07:22;1.02;;;0.50;;
9178;SDS011;4624;48.126;11.546;2023-03-15T12:09:54;0.68;;;0.50;;
9178;SDS011;4624;48.126;11.546;2023-03-15T12:12:36;1.65;;;0.50;;
9178;SDS011;4624;48.126;11.546;2023-03-15T12:15:06;2.22;;;0.50;;
9178;SDS011;4624;48.126;11.546;2023-03-15T12:17:55;0.88;;;0.38;;
9178;SDS011;4624;48.126;11.546;2023-03-15T12:20:26;0.50;;;0.30;;
9178;SDS011;4624;48.126;11.546;2023-03-15T12:23:04;1.55;;;0.70;;
9178;SDS011;4624;48.126;11.546;2023-03-15T12:25:44;1.15;;;0.38;;
9178;SDS011;4624;48.126;11.546;2023-03-15T12:28:20;1.90;;;0.70;;
9178;SDS011;4624;48.126;11.546;2023-03-15T12:30:51;2.03;;;0.60;;
9178;SDS011;4624;48.126;11.546;2023-03-15T12:33:20;2.73;;;1.00;;
9178;SDS011;4624;48.126;11.546;2023-03-15T12:35:48;1.60;;;0.50;;
9178;SDS011;4624;48.126;11.546;2023-03-15T12:38:16;1.67;;;0.50;;
9178;SDS011;4624;48.126;11.546;2023-03-15T12:40:49;1.27;;;0.40;;
9178;SDS011;4624;48.126;11.546;2023-03-15T12:43:35;1.40;;;0.60;;
9178;SDS011;4624;48.126;11.546;2023-03-15T12:46:04;0.73;;;0.47;;
9178;SDS011;4624;48.126;11.546;2023-03-15T12:48:31;1.87;;;0.50;;
9178;SDS011;4624;48.126;11.546;2023-03-15T12:51:02;0.97;;;0.50;;
9178;SDS011;4624;48.126;11.546;2023-03-15T12:53:38;2.07;;;0.43;;
9178;SDS011;4624;48.126;11.546;2023-03-15T12:56:22;2.23;;;0.70;;
9178;SDS011;4624;48.126;11.546;2023-03-15T12:58:59;1.90;;;0.50;;
9178;SDS011;4624;48.126;11.546;2023-03-15T13:01:42;2.10;;;0.53;;
9178;SDS011;4624;48.126;11.546;2023-03-15T13:04:10;1.00;;;0.40;;
9178;SDS011;4624;48.126;11.546;2023-03-15T13:06:42;2.00;;;0.50;;
9178;SDS011;4624;48.126;11.546;2023-03-15T13:09:20;0.50;;;0.40;;
9178;SDS011;4624;48.126;11.546;2023-03-15T13:11:58;1.50;;;0.40;;
9178;SDS011;4624;48.126;11.546;2023-03-15T13:14:37;1.13;;;0.43;;
9178;SDS011;4624;48.126;11.546;2023-03-15T13:17:11;1.37;;;0.43;;
9178;SDS011;4624;48.126;11.546;2023-03-15T13:19:46;1.20;;;0.30;;
9178;SDS011;4624;48.126;11.546;2023-03-15T13:22:21;0.73;;;0.40;;
9178;SDS011;4624;48.126;11.546;2023-03-15T13:24:55;3.33;;;0.60;;
9178;SDS011;4624;48.126;11.546;2023-03-15T13:27:31;0.87;;;0.40;;
9178;SDS011;4624;48.126;11.546;2023-03-15T13:30:20;1.60;;;0.40;;
9178;SDS011;4624;48.126;11.546;2023-03-15T13:33:10;0.50;;;0.30;;
9178;SDS011;4624;48.126;11.546;2023-03-15T13:35:45;2.00;;;1.17;;
9178;SDS011;4624;48.126;11.546;2023-03-15T13:38:22;1.23;;;0.30;;
9178;SDS011;4624;48.126;11.546;2023-03-15T13:40:53;0.40;;;0.30;;
9178;SDS011;4624;48.126;11.546;2023-03-15T13:43:23;0.60;;;0.30;;
9178;SDS011;4624;48.126;11.546;2023-03-15T13:45:55;0.57;;;0.23;;
9178;SDS011;4624;48.126;11.546;2023-03-15T13:48:22;1.77;;;0.30;;
9178;SDS011;4624;48.126;11.546;2023-03-15T13:50:52;1.17;;;0.30;;
9178;SDS011;4624;48.126;11.546;2023-03-15T13:53:21;0.20;;;0.20;;
9178;SDS011;4624;48.126;11.546;2023-03-15T13:55:51;1.00;;;0.40;;
9178;SDS011;4624;48.126;11.546;2023-03-15T13:58:19;1.17;;;0.37;;
9178;SDS011;4624;48.126;11.546;2023-03-15T14:00:55;0.97;;;0.30;;
9178;SDS011;4624;48.126;11.546;2023-03-15T14:03:25;1.50;;;0.37;;
9178;SDS011;4624;48.126;11.546;2023-03-15T14:05:54;1.17;;;0.40;;
9178;SDS011;4624;48.126;11.546;2023-03-15T14:08:22;0.93;;;0.30;;
9178;SDS011;4624;48.126;11.546;2023-03-15T14:11:02;1.10;;;0.37;;
9178;SDS011;4624;48.126;11.546;2023-03-15T14:13:31;1.33;;;0.30;;
9178;SDS011;4624;48.126;11.546;2023-03-15T14:16:01;1.23;;;0.50;;
9178;SDS011;4624;48.126;11.546;2023-03-15T14:18:30;0.67;;;0.50;;
9178;SDS011;4624;48.126;11.546;2023-03-15T14:20:59;0.53;;;0.40;;
9178;SDS011;4624;48.126;11.546;2023-03-15T14:23:29;0.50;;;0.30;;
9178;SDS011;4624;48.126;11.546;2023-03-15T14:26:00;0.97;;;0.30;;
9178;SDS011;4624;48.126;11.546;2023-03-15T14:28:31;1.13;;;0.30;;
9178;SDS011;4624;48.126;11.546;2023-03-15T14:30:59;0.53;;;0.40;;
9178;SDS011;4624;48.126;11.546;2023-03-15T14:33:30;1.83;;;0.40;;
9178;SDS011;4624;48.126;11.546;2023-03-15T14:35:58;3.63;;;0.50;;
9178;SDS011;4624;48.126;11.546;2023-03-15T14:38:30;1.43;;;0.60;;
9178;SDS011;4624;48.126;11.546;2023-03-15T14:41:09;0.77;;;0.60;;
9178;SDS011;4624;48.126;11.546;2023-03-15T14:43:44;1.03;;;0.40;;
9178;SDS011;4624;48.126;11.546;2023-03-15T14:46:12;0.67;;;0.30;;
9178;SDS011;4624;48.126;11.546;2023-03-15T14:48:39;1.43;;;0.30;;
9178;SDS011;4624;48.126;11.546;2023-03-15T14:51:06;1.03;;;0.50;;
9178;SDS011;4624;48.126;11.546;2023-03-15T14:53:39;1.53;;;0.50;;
9178;SDS011;4624;48.126;11.546;2023-03-15T14:56:08;0.67;;;0.47;;
9178;SDS011;4624;48.126;11.546;2023-03-15T14:58:36;1.07;;;0.40;;
9178;SDS011;4624;48.126;11.546;2023-03-15T15:01:03;0.90;;;0.40;;
9178;SDS011;4624;48.126;11.546;2023-03-15T15:03:32;1.80;;;0.50;;
9178;SDS011;4624;48.126;11.546;2023-03-15T15:06:02;0.37;;;0.37;;
9178;SDS011;4624;48.126;11.546;2023-03-15T15:08:31;1.83;;;0.23;;
9178;SDS011;4624;48.126;11.546;2023-03-15T15:11:02;2.30;;;0.60;;
9178;SDS011;4624;48.126;11.546;2023-03-15T15:13:29;2.00;;;0.50;;
9178;SDS011;4624;48.126;11.546;2023-03-15T15:15:56;0.70;;;0.40;;